TimeEDT,TemperatureF,Dew PointF,Humidity,Sea Level PressureIn,VisibilityMPH,Wind Direction,Wind SpeedMPH,Gust SpeedMPH,PrecipitationIn,Events,Conditions,WindDirDegrees,DateUTC
12:54 AM,64.9,59.0,81,30.03,10.0,SSE,4.6,-,N/A,,Clear,160,2013-06-09 04:54:00
1:54 AM,64.0,59.0,84,30.04,9.0,SSE,4.6,-,N/A,,Clear,160,2013-06-09 05:54:00
2:54 AM,62.1,57.9,86,30.05,8.0,SSE,5.8,-,N/A,,Mostly Cloudy,160,2013-06-09 06:54:00
3:54 AM,63.0,59.0,87,30.05,8.0,SSE,4.6,-,N/A,,Mostly Cloudy,150,2013-06-09 07:54:00
4:54 AM,62.1,59.0,90,30.05,8.0,SSE,6.9,-,N/A,,Scattered Clouds,150,2013-06-09 08:54:00
5:54 AM,62.1,59.0,90,30.05,8.0,SE,3.5,-,N/A,,Clear,140,2013-06-09 09:54:00
6:54 AM,63.0,59.0,87,30.07,7.0,SE,5.8,-,N/A,,Mostly Cloudy,140,2013-06-09 10:54:00
7:54 AM,66.9,60.1,79,30.06,8.0,Calm,Calm,-,N/A,,Clear,0,2013-06-09 11:54:00
8:54 AM,72.0,63.0,73,30.06,10.0,SSE,5.8,-,N/A,,Clear,150,2013-06-09 12:54:00
9:54 AM,75.0,64.9,71,30.05,10.0,SE,8.1,-,N/A,,Partly Cloudy,140,2013-06-09 13:54:00
10:54 AM,77.0,64.0,64,30.06,10.0,SSE,9.2,-,N/A,,Overcast,160,2013-06-09 14:54:00
11:54 AM,78.1,63.0,60,30.05,10.0,SSE,10.4,-,N/A,,Overcast,160,2013-06-09 15:54:00
12:54 PM,80.1,64.9,60,30.02,10.0,SSE,9.2,-,N/A,,Partly Cloudy,150,2013-06-09 16:54:00
1:48 PM,73.4,68.0,83,30.04,5.0,SSE,6.9,-,0.01,Rain-Thunderstorm,Thunderstorms and Rain,160,2013-06-09 17:48:00
1:54 PM,73.9,69.1,85,30.01,4.0,South,8.1,-,0.02,Rain-Thunderstorm,Thunderstorms and Rain,170,2013-06-09 17:54:00
2:54 PM,73.0,70.0,90,30.02,5.0,South,5.8,-,0.05,Rain,Light Rain,180,2013-06-09 18:54:00
3:01 PM,73.4,69.8,88,30.05,6.0,South,6.9,-,0.00,Rain,Light Rain,180,2013-06-09 19:01:00
3:09 PM,71.6,68.0,88,30.05,6.0,SSW,6.9,-,0.00,Rain,Light Rain,210,2013-06-09 19:09:00
3:40 PM,71.6,66.2,83,30.04,9.0,South,11.5,-,0.00,Rain,Light Rain,180,2013-06-09 19:40:00
3:54 PM,70.0,66.9,90,30.01,5.0,South,12.7,-,0.02,Rain,Light Rain,180,2013-06-09 19:54:00
4:54 PM,70.0,66.9,90,29.97,10.0,SE,8.1,-,0.06,Rain,Light Rain,130,2013-06-09 20:54:00
5:54 PM,71.1,68.0,90,29.97,10.0,SSE,6.9,-,0.00,Rain,Light Rain,160,2013-06-09 21:54:00
6:43 PM,69.8,66.2,88,29.98,10.0,SSE,8.1,-,0.00,Rain,Light Rain,150,2013-06-09 22:43:00
6:54 PM,70.0,66.9,90,29.96,10.0,SE,11.5,-,0.00,Rain,Light Rain,140,2013-06-09 22:54:00
7:54 PM,70.0,66.0,87,29.96,10.0,SE,10.4,18.4,0.00,,Mostly Cloudy,140,2013-06-09 23:54:00
8:54 PM,70.0,66.0,87,29.96,10.0,SE,8.1,-,N/A,,Overcast,130,2013-06-10 00:54:00
9:54 PM,69.1,66.0,90,29.94,10.0,SE,10.4,-,0.00,,Scattered Clouds,130,2013-06-10 01:54:00
10:06 PM,69.8,64.4,83,29.96,10.0,SE,10.4,-,N/A,,Mostly Cloudy,140,2013-06-10 02:06:00
10:54 PM,68.0,64.9,90,29.94,10.0,SE,8.1,18.4,N/A,,Partly Cloudy,140,2013-06-10 02:54:00
11:02 PM,68.0,64.4,88,29.97,10.0,SE,11.5,-,N/A,,Mostly Cloudy,140,2013-06-10 03:02:00
11:54 PM,68.0,64.9,90,29.93,10.0,SE,11.5,-,N/A,,Overcast,140,2013-06-10 03:54:00